createdAt,value
2018-12-12T00:01:46.160Z,3.85
2018-12-12T00:07:14.366Z,4.20
2018-12-12T00:12:42.568Z,5.05
2018-12-12T00:18:10.853Z,4.40
2018-12-12T00:23:38.972Z,4.50
2018-12-12T00:29:07.064Z,4.53
2018-12-12T00:34:35.150Z,4.03
2018-12-12T00:40:03.442Z,4.55
2018-12-12T00:45:31.558Z,4.37
2018-12-12T00:50:59.684Z,4.45
2018-12-12T00:56:27.901Z,5.00
2018-12-12T01:01:55.964Z,5.45
2018-12-12T01:07:24.023Z,4.58
2018-12-12T01:12:52.094Z,5.45
2018-12-12T01:18:20.165Z,4.37
2018-12-12T01:23:48.257Z,3.80
2018-12-12T01:29:16.428Z,3.90
2018-12-12T01:34:44.521Z,2.67
2018-12-12T01:40:12.604Z,3.90
2018-12-12T01:45:41.021Z,4.80
2018-12-12T01:51:09.362Z,3.87
2018-12-12T01:56:37.509Z,4.28
2018-12-12T02:02:05.646Z,3.95
2018-12-12T02:07:33.734Z,4.42
2018-12-12T02:13:19.980Z,6.35
2018-12-12T02:18:48.109Z,4.05
2018-12-12T02:24:16.192Z,4.85
2018-12-12T02:29:44.373Z,4.95
2018-12-12T02:35:12.523Z,3.87
2018-12-12T02:40:40.669Z,5.08
2018-12-12T02:46:09.567Z,4.55
2018-12-12T02:51:37.685Z,5.03
2018-12-12T02:57:05.811Z,3.58
2018-12-12T03:02:33.980Z,5.28
2018-12-12T03:08:02.174Z,3.75
2018-12-12T03:13:30.260Z,4.83
2018-12-12T03:18:58.331Z,4.80
2018-12-12T03:24:26.481Z,4.08
2018-12-12T03:29:54.625Z,4.67
2018-12-12T03:35:22.700Z,5.80
2018-12-12T03:40:51.039Z,4.47
2018-12-12T03:46:19.108Z,4.37
2018-12-12T03:51:47.236Z,4.40
2018-12-12T03:57:15.310Z,4.47
2018-12-12T04:02:43.527Z,4.97
2018-12-12T04:08:11.700Z,4.83
2018-12-12T04:13:39.850Z,4.37
2018-12-12T04:19:08.101Z,4.15
2018-12-12T04:24:36.265Z,4.53
2018-12-12T04:30:06.840Z,3.77
2018-12-12T04:35:34.911Z,4.00
2018-12-12T04:41:03.004Z,4.25
2018-12-12T04:46:31.063Z,4.42
2018-12-12T04:51:59.291Z,4.37
2018-12-12T04:57:27.464Z,6.10
2018-12-12T05:02:56.892Z,6.35
2018-12-12T05:08:25.178Z,5.92
2018-12-12T05:13:53.255Z,5.75
2018-12-12T05:19:21.411Z,6.22
2018-12-12T05:24:49.532Z,5.67
2018-12-12T05:30:17.630Z,6.60
2018-12-12T05:35:46.026Z,5.28
2018-12-12T05:41:14.128Z,5.55
2018-12-12T05:46:42.260Z,6.40
2018-12-12T05:52:10.368Z,7.17
2018-12-12T05:57:38.485Z,6.65
2018-12-12T06:03:06.639Z,7.58
2018-12-12T06:08:34.738Z,6.83
2018-12-12T06:14:02.987Z,6.83
2018-12-12T06:19:31.064Z,9.40
2018-12-12T06:24:59.180Z,7.05
2018-12-12T06:30:27.353Z,7.35
2018-12-12T06:35:55.469Z,8.20
2018-12-12T06:41:23.610Z,6.55
2018-12-12T06:46:51.706Z,8.50
2018-12-12T06:52:19.812Z,8.05
2018-12-12T06:57:47.943Z,7.70
2018-12-12T07:03:16.055Z,8.90
2018-12-12T07:08:44.187Z,6.92
2018-12-12T07:14:12.482Z,8.58
2018-12-12T07:19:40.644Z,7.67
2018-12-12T07:25:08.906Z,6.55
2018-12-12T07:30:37.129Z,7.33
2018-12-12T07:36:05.344Z,9.25
2018-12-12T07:41:33.959Z,10.80
2018-12-12T07:47:02.094Z,9.55
2018-12-12T07:52:30.305Z,6.92
2018-12-12T07:57:58.385Z,9.90
2018-12-12T08:03:26.571Z,10.00
2018-12-12T08:08:54.759Z,9.05
2018-12-12T08:14:22.884Z,11.60
2018-12-12T08:19:51.124Z,10.65
2018-12-12T08:25:20.079Z,10.15
2018-12-12T08:30:48.143Z,9.90
2018-12-12T08:36:16.252Z,11.40
2018-12-12T08:41:44.344Z,9.65
2018-12-12T08:47:12.442Z,10.70
2018-12-12T08:52:40.565Z,10.53
2018-12-12T08:58:08.662Z,10.98
2018-12-12T09:03:36.741Z,10.93
2018-12-12T09:09:07.009Z,11.73
2018-12-12T09:14:35.131Z,11.10
2018-12-12T09:20:04.609Z,12.00
2018-12-12T09:25:32.697Z,11.80
2018-12-12T09:31:00.829Z,10.48
2018-12-12T09:36:28.919Z,12.43
2018-12-12T09:41:56.999Z,9.58
2018-12-12T09:47:25.420Z,11.12
2018-12-12T09:52:53.474Z,9.48
2018-12-12T09:58:21.555Z,12.60
2018-12-12T10:03:49.680Z,9.95
2018-12-12T10:09:17.790Z,11.15
2018-12-12T10:14:45.866Z,11.95
2018-12-12T10:20:14.007Z,14.43
2018-12-12T10:25:42.095Z,11.63
2018-12-12T10:31:10.214Z,11.60
2018-12-12T10:36:38.320Z,14.78
2018-12-12T10:42:06.432Z,11.80
2018-12-12T10:47:34.540Z,13.53
2018-12-12T10:53:02.731Z,12.35
2018-12-12T10:58:30.888Z,12.43
2018-12-12T11:03:59.088Z,11.60
2018-12-12T11:09:27.204Z,11.68
2018-12-12T11:14:55.412Z,11.53
2018-12-12T11:20:23.560Z,12.18
2018-12-12T11:25:51.782Z,12.28
2018-12-12T11:31:19.873Z,13.55
2018-12-12T11:36:47.959Z,14.23
2018-12-12T11:42:16.079Z,13.88
2018-12-12T11:47:45.556Z,12.23
2018-12-12T11:53:13.862Z,13.03
2018-12-12T11:58:41.965Z,13.48
2018-12-12T12:04:10.192Z,12.50
2018-12-12T12:09:38.487Z,13.05
2018-12-12T12:15:08.294Z,13.25
2018-12-12T12:20:36.539Z,12.98
2018-12-12T12:26:07.461Z,13.45
2018-12-12T12:31:36.175Z,13.15
2018-12-12T12:37:04.398Z,14.45
2018-12-12T12:42:32.480Z,14.63
2018-12-12T12:48:00.580Z,14.20
2018-12-12T12:53:28.669Z,12.95
2018-12-12T12:58:56.929Z,11.93
2018-12-12T13:04:25.010Z,13.58
2018-12-12T13:09:53.105Z,12.88
2018-12-12T13:15:21.338Z,12.63
2018-12-12T13:20:49.425Z,12.82
2018-12-12T13:26:17.881Z,13.55
2018-12-12T13:31:45.957Z,13.03
2018-12-12T13:37:14.056Z,13.53
2018-12-12T13:42:42.139Z,13.50
2018-12-12T13:48:10.255Z,13.48
2018-12-12T13:53:38.388Z,12.13
2018-12-12T13:59:06.525Z,13.45
2018-12-12T14:04:34.668Z,13.93
2018-12-12T14:10:02.794Z,14.58
2018-12-12T14:15:30.884Z,13.03
2018-12-12T14:20:59.004Z,12.33
2018-12-12T14:26:27.076Z,14.43
2018-12-12T14:31:55.187Z,13.20
2018-12-12T14:37:23.326Z,12.18
2018-12-12T14:42:51.441Z,13.20
2018-12-12T14:48:19.767Z,13.50
2018-12-12T14:53:47.902Z,14.35
2018-12-12T14:59:16.123Z,13.65
2018-12-12T15:04:44.240Z,14.35
2018-12-12T15:10:12.335Z,12.88
2018-12-12T15:15:40.651Z,14.28
2018-12-12T15:21:08.819Z,13.00
2018-12-12T15:26:36.915Z,12.88
2018-12-12T15:32:05.166Z,13.50
2018-12-12T15:37:33.299Z,11.70
2018-12-12T15:43:01.499Z,12.90
2018-12-12T15:48:29.730Z,13.18
2018-12-12T15:53:57.809Z,12.45
2018-12-12T15:59:26.264Z,12.10
2018-12-12T16:04:54.356Z,12.30
2018-12-12T16:10:22.539Z,10.70
2018-12-12T16:15:50.752Z,13.32
2018-12-12T16:21:18.854Z,11.53
2018-12-12T16:26:46.937Z,13.80
2018-12-12T16:32:15.117Z,12.13
2018-12-12T16:37:43.313Z,12.05
2018-12-12T16:43:11.680Z,14.35
2018-12-12T16:48:39.813Z,12.90
2018-12-12T16:54:08.831Z,12.33
2018-12-12T16:59:36.993Z,12.05
2018-12-12T17:05:05.585Z,13.13
2018-12-12T17:10:33.756Z,11.75
2018-12-12T17:16:01.892Z,12.47
2018-12-12T17:21:30.034Z,12.07
2018-12-12T17:26:58.158Z,12.95
2018-12-12T17:32:26.247Z,10.72
2018-12-12T17:37:54.369Z,9.60
2018-12-12T17:43:22.928Z,6.60
2018-12-12T17:48:51.212Z,5.85
2018-12-12T17:54:19.325Z,5.47
2018-12-12T17:59:47.397Z,5.53
2018-12-12T18:05:20.425Z,5.20
2018-12-12T18:10:48.527Z,6.42
2018-12-12T18:16:17.420Z,4.97
2018-12-12T18:21:45.613Z,4.12
2018-12-12T18:27:14.132Z,5.40
2018-12-12T18:32:42.260Z,5.55
2018-12-12T18:38:10.415Z,5.95
2018-12-12T18:43:39.337Z,22.65
2018-12-12T18:49:07.455Z,7.33
2018-12-12T18:54:35.588Z,5.80
2018-12-12T19:00:04.853Z,6.75
2018-12-12T19:05:32.936Z,5.92
2018-12-12T19:11:01.083Z,4.97
2018-12-12T19:16:29.215Z,5.50
2018-12-12T19:21:57.394Z,5.55
2018-12-12T19:27:25.687Z,5.22
2018-12-12T19:32:53.904Z,6.55
2018-12-12T19:38:22.148Z,6.53
2018-12-12T19:43:51.068Z,7.78
2018-12-12T19:49:19.343Z,7.00
2018-12-12T19:54:48.471Z,7.37
2018-12-12T20:00:16.967Z,7.60
2018-12-12T20:05:45.177Z,7.45
2018-12-12T20:11:13.473Z,6.60
2018-12-12T20:16:41.643Z,7.45
2018-12-12T20:22:09.755Z,7.55
2018-12-12T20:27:37.881Z,6.53
2018-12-12T20:33:06.060Z,6.37
2018-12-12T20:38:34.215Z,7.45
2018-12-12T20:44:02.392Z,6.97
2018-12-12T20:49:30.476Z,7.53
2018-12-12T20:54:58.567Z,8.43
2018-12-12T21:00:26.704Z,7.47
2018-12-12T21:05:54.991Z,8.28
2018-12-12T21:11:23.090Z,8.63
2018-12-12T21:16:51.364Z,9.18
2018-12-12T21:22:19.493Z,8.70
2018-12-12T21:27:50.164Z,8.30
2018-12-12T21:33:18.472Z,9.03
2018-12-12T21:38:46.782Z,8.75
2018-12-12T21:44:15.960Z,8.00
2018-12-12T21:49:44.103Z,9.20
2018-12-12T21:55:12.405Z,9.10
2018-12-12T22:00:40.669Z,10.48
2018-12-12T22:06:08.910Z,9.13
2018-12-12T22:11:37.006Z,10.58
2018-12-12T22:17:05.362Z,9.53
2018-12-12T22:22:33.495Z,11.95
2018-12-12T22:28:01.915Z,9.48
2018-12-12T22:33:30.157Z,8.85
2018-12-12T22:38:58.329Z,8.50
2018-12-12T22:44:26.424Z,9.63
2018-12-12T22:49:54.672Z,9.75
2018-12-12T22:55:23.718Z,10.25
2018-12-12T23:00:59.664Z,9.30
2018-12-12T23:06:27.859Z,8.80
2018-12-12T23:11:56.007Z,8.05
2018-12-12T23:17:24.123Z,10.53
2018-12-12T23:22:52.215Z,8.95
2018-12-12T23:28:20.303Z,9.08
2018-12-12T23:33:48.394Z,9.28
2018-12-12T23:39:16.497Z,8.83
2018-12-12T23:44:44.783Z,9.50
2018-12-12T23:50:12.888Z,8.85
2018-12-12T23:55:41.266Z,8.55
